createdAt,value
2019-05-14T04:02:02.499Z,85.174561
2019-05-14T04:05:32.568Z,84.765625
2019-05-14T04:09:02.768Z,84.558105
2019-05-14T04:12:32.900Z,84.967041
2019-05-14T04:16:03.071Z,84.143066
2019-05-14T04:19:33.118Z,84.350586
2019-05-14T04:23:04.155Z,83.734131
2019-05-14T04:26:52.927Z,82.806396
2019-05-14T04:30:10.597Z,83.422852
2019-05-14T04:33:40.802Z,82.971191
2019-05-14T04:37:11.303Z,83.282471
2019-05-14T04:40:41.419Z,81.945801
2019-05-14T04:44:12.655Z,81.634521
2019-05-14T04:47:43.198Z,81.738281
2019-05-14T04:51:13.438Z,80.26123
2019-05-14T04:54:43.654Z,81.390381
2019-05-14T04:58:13.918Z,80.26123
2019-05-14T05:01:44.136Z,80.46875
2019-05-14T05:05:19.239Z,80.773926
2019-05-14T05:08:50.288Z,82.214355
2019-05-14T05:12:20.827Z,81.90918
2019-05-14T05:15:51.083Z,81.561279
2019-05-14T05:19:21.682Z,81.665039
2019-05-14T05:22:51.580Z,81.45752
2019-05-14T05:26:21.796Z,81.561279
2019-05-14T05:29:52.041Z,80.493164
2019-05-14T05:33:22.181Z,78.955078
2019-05-14T05:36:52.520Z,79.260254
2019-05-14T05:40:22.729Z,78.955078
2019-05-14T05:43:53.016Z,79.119873
2019-05-14T05:47:23.173Z,79.327393
2019-05-14T05:50:53.290Z,78.814697
2019-05-14T05:54:23.726Z,78.295898
2019-05-14T05:57:53.913Z,79.083252
2019-05-14T06:01:39.270Z,78.570557
2019-05-14T06:05:00.273Z,76.513672
2019-05-14T06:08:30.656Z,76.312256
2019-05-14T06:12:00.736Z,76.78833
2019-05-14T06:15:44.428Z,76.068115
2019-05-14T06:19:07.980Z,74.841309
2019-05-14T06:22:38.579Z,74.224854
2019-05-14T06:26:11.335Z,75.45166
2019-05-14T06:29:41.919Z,73.571777
2019-05-14T06:33:12.025Z,73.883057
2019-05-14T06:36:42.130Z,74.188232
2019-05-14T06:40:13.404Z,75.317383
2019-05-14T06:43:45.487Z,74.768066
2019-05-14T06:47:18.394Z,75.488281
2019-05-14T06:50:50.193Z,75.079346
2019-05-14T06:54:19.941Z,75.177002
2019-05-14T06:57:51.755Z,75.146484
2019-05-14T07:01:21.877Z,74.731445
2019-05-14T07:04:52.039Z,74.188232
2019-05-14T07:08:22.263Z,74.291992
2019-05-14T07:11:52.615Z,72.650146
2019-05-14T07:15:22.731Z,69.268799
2019-05-14T07:18:54.222Z,65.991211
2019-05-14T07:22:24.917Z,67.218018
2019-05-14T07:25:56.073Z,66.97998
2019-05-14T07:29:29.232Z,64.935303
2019-05-14T07:32:59.606Z,66.05835
2019-05-14T07:36:29.752Z,64.39209
2019-05-14T07:40:00.017Z,62.518311
2019-05-14T07:43:30.101Z,61.322021
2019-05-14T07:47:00.413Z,61.322021
2019-05-14T07:50:30.648Z,61.090088
2019-05-14T07:54:00.751Z,61.16333
2019-05-14T07:57:30.807Z,63.311768
2019-05-14T08:01:01.063Z,61.05957
2019-05-14T08:04:30.967Z,59.832764
2019-05-14T08:08:02.078Z,59.802246
2019-05-14T08:11:33.132Z,62.255859
2019-05-14T08:15:15.094Z,60.827637
2019-05-14T08:18:40.350Z,61.749268
2019-05-14T08:22:10.540Z,59.368896
2019-05-14T08:25:40.659Z,60.595703
2019-05-14T08:29:10.870Z,59.954834
2019-05-14T08:32:41.491Z,56.072998
2019-05-14T08:36:11.330Z,57.910156
2019-05-14T08:39:41.527Z,56.68335
2019-05-14T08:43:11.552Z,59.619141
2019-05-14T08:46:44.630Z,57.879639
2019-05-14T08:50:14.632Z,57.067871
2019-05-14T08:53:45.730Z,59.106445
2019-05-14T08:57:19.061Z,59.283447
2019-05-14T09:00:48.777Z,58.465576
2019-05-14T09:04:22.093Z,58.569336
2019-05-14T09:07:52.165Z,58.135986
2019-05-14T09:11:25.560Z,56.57959
2019-05-14T09:14:58.938Z,61.004639
2019-05-14T09:18:29.440Z,54.156494
2019-05-14T09:21:59.645Z,53.344727
2019-05-14T09:25:29.732Z,50.219727
2019-05-14T09:28:59.872Z,48.950195
2019-05-14T09:32:32.888Z,49.078369
2019-05-14T09:36:14.502Z,49.914551
2019-05-14T09:39:39.084Z,46.453857
2019-05-14T09:43:10.136Z,45.928955
2019-05-14T09:46:40.154Z,48.364258
2019-05-14T09:50:18.447Z,47.619629
2019-05-14T09:53:45.756Z,47.357178
2019-05-14T09:57:18.864Z,50.494385
2019-05-14T10:00:48.828Z,48.175049
2019-05-14T10:04:18.879Z,49.371338
2019-05-14T10:07:50.075Z,46.520996
2019-05-14T10:11:20.139Z,47.741699
2019-05-14T10:14:50.113Z,46.337891
2019-05-14T10:18:20.142Z,43.95752
2019-05-14T10:21:51.360Z,45.056152
2019-05-14T10:25:21.229Z,40.783691
2019-05-14T10:28:51.195Z,45.721436
2019-05-14T10:32:21.162Z,43.444824
2019-05-14T10:35:51.233Z,44.665527
2019-05-14T10:39:21.192Z,39.672852
2019-05-14T10:42:52.323Z,44.012451
2019-05-14T10:46:22.286Z,40.9729
2019-05-14T10:49:52.260Z,37.963867
2019-05-14T10:53:22.256Z,38.470459
2019-05-14T10:56:52.455Z,39.245605
2019-05-14T11:00:22.384Z,39.190674
2019-05-14T11:03:52.383Z,35.717773
2019-05-14T11:07:22.389Z,40.026855
2019-05-14T11:10:53.538Z,36.169434
2019-05-14T11:14:31.318Z,33.917236
2019-05-14T11:18:00.567Z,35.748291
2019-05-14T11:21:30.539Z,33.306885
2019-05-14T11:25:00.546Z,34.521484
2019-05-14T11:28:31.879Z,36.523438
2019-05-14T11:32:01.657Z,35.900879
2019-05-14T11:35:31.633Z,34.185791
2019-05-14T11:39:03.931Z,33.984375
2019-05-14T11:42:33.587Z,36.688232
2019-05-14T11:46:04.229Z,29.241943
2019-05-14T11:49:35.236Z,31.359863
2019-05-14T11:53:05.233Z,32.25708
2019-05-14T11:56:41.504Z,32.641602
2019-05-14T12:00:10.173Z,33.465576
2019-05-14T12:03:40.320Z,32.25708
2019-05-14T12:07:10.324Z,34.570312
2019-05-14T12:10:40.309Z,39.978027
2019-05-14T12:14:10.292Z,34.844971
2019-05-14T12:17:40.291Z,35.650635
2019-05-14T12:21:10.490Z,34.790039
2019-05-14T12:24:40.470Z,36.523438
2019-05-14T12:28:13.529Z,40.155029
2019-05-14T12:31:42.465Z,37.695312
2019-05-14T12:35:12.706Z,41.143799
2019-05-14T12:38:42.704Z,39.935303
2019-05-14T12:42:12.700Z,40.075684
2019-05-14T12:45:42.676Z,40.356445
2019-05-14T12:49:12.673Z,41.992188
2019-05-14T12:52:42.798Z,42.089844
2019-05-14T12:56:12.780Z,40.533447
2019-05-14T12:59:42.767Z,42.657471
2019-05-14T13:03:12.722Z,42.755127
2019-05-14T13:06:42.716Z,42.980957
2019-05-14T13:10:12.881Z,42.901611
2019-05-14T13:13:43.878Z,45.733643
2019-05-14T13:17:14.804Z,44.293213
2019-05-14T13:20:48.020Z,45.690918
2019-05-14T13:24:18.163Z,45.410156
2019-05-14T13:27:48.473Z,45.959473
2019-05-14T13:31:19.440Z,43.609619
2019-05-14T13:34:49.432Z,48.31543
2019-05-14T13:38:19.416Z,44.274902
2019-05-14T13:41:49.416Z,45.550537
2019-05-14T13:45:20.558Z,45.245361
2019-05-14T13:48:50.598Z,49.859619
2019-05-14T13:52:20.596Z,46.19751
2019-05-14T13:55:57.336Z,46.19751
2019-05-14T13:59:24.973Z,48.925781
2019-05-14T14:02:56.001Z,46.905518
2019-05-14T14:06:27.059Z,46.496582
2019-05-14T14:09:59.072Z,43.585205
2019-05-14T14:13:31.280Z,45.062256
2019-05-14T14:17:01.243Z,45.770264
2019-05-14T14:20:00.483Z,43.139648
2019-05-14T14:23:32.522Z,45.666504
2019-05-14T14:27:02.555Z,44.799805
2019-05-14T14:30:32.608Z,44.152832
2019-05-14T14:34:02.727Z,45.074463
2019-05-14T14:37:32.731Z,44.348145
2019-05-14T14:41:02.995Z,40.704346
2019-05-14T14:44:34.152Z,38.214111
2019-05-14T14:48:04.225Z,36.688232
2019-05-14T14:51:41.658Z,38.092041
2019-05-14T14:55:10.354Z,40.924072
2019-05-14T14:58:40.415Z,41.589355
2019-05-14T15:02:11.437Z,43.566895
2019-05-14T15:05:41.443Z,42.376709
2019-05-14T15:09:11.473Z,38.95874
2019-05-14T15:12:41.607Z,36.480713
2019-05-14T15:16:13.675Z,37.06665
2019-05-14T15:19:43.660Z,35.894775
2019-05-14T15:23:13.665Z,36.700439
2019-05-14T15:26:43.797Z,35.797119
2019-05-14T15:30:13.975Z,34.47876
2019-05-14T15:33:44.018Z,36.047363
2019-05-14T15:37:15.057Z,35.36377
2019-05-14T15:40:48.550Z,35.626221
2019-05-14T15:44:19.481Z,32.977295
2019-05-14T15:47:49.207Z,30.108643
2019-05-14T15:51:20.279Z,33.233643
2019-05-14T15:54:51.269Z,39.251709
2019-05-14T15:58:22.276Z,39.337158
2019-05-14T16:01:52.496Z,37.811279
2019-05-14T16:05:22.484Z,33.068848
2019-05-14T16:08:52.534Z,32.751465
2019-05-14T16:12:22.561Z,28.747559
2019-05-14T16:15:52.610Z,30.737305
2019-05-14T16:19:22.746Z,27.154541
2019-05-14T16:22:52.721Z,26.794434
2019-05-14T16:26:22.728Z,28.509521
2019-05-14T16:29:52.706Z,28.723145
2019-05-14T16:33:22.690Z,29.693604
2019-05-14T16:36:54.347Z,26.556396
2019-05-14T16:40:25.351Z,27.258301
2019-05-14T16:43:58.673Z,29.595947
2019-05-14T16:47:28.699Z,26.9104
2019-05-14T16:50:59.297Z,28.78418
2019-05-14T16:54:30.465Z,28.082275
2019-05-14T16:58:00.443Z,28.45459
2019-05-14T17:01:33.632Z,26.068115
2019-05-14T17:05:02.387Z,27.294922
2019-05-14T17:08:32.619Z,28.234863
2019-05-14T17:12:02.573Z,27.819824
2019-05-14T17:15:32.526Z,29.217529
2019-05-14T17:19:02.530Z,29.205322
2019-05-14T17:22:34.004Z,30.914307
2019-05-14T17:26:03.514Z,31.896973
2019-05-14T17:29:33.505Z,34.893799
2019-05-14T17:33:03.492Z,33.984375
2019-05-14T17:36:33.475Z,31.750488
2019-05-14T17:40:04.472Z,32.574463
2019-05-14T17:43:35.709Z,37.640381
2019-05-14T17:47:06.720Z,37.994385
2019-05-14T17:50:38.482Z,38.415527
2019-05-14T17:54:09.196Z,39.855957
2019-05-14T17:57:45.671Z,40.39917
2019-05-14T18:01:13.824Z,41.943359
2019-05-14T18:04:44.779Z,41.149902
2019-05-14T18:08:18.230Z,42.06543
2019-05-14T18:11:48.934Z,40.985107
2019-05-14T18:15:17.674Z,43.731689
2019-05-14T18:18:49.316Z,43.426514
2019-05-14T18:22:19.566Z,44.07959
2019-05-14T18:26:03.176Z,46.722412
2019-05-14T18:29:25.383Z,47.436523
2019-05-14T18:32:58.508Z,46.722412
2019-05-14T18:36:29.346Z,48.577881
2019-05-14T18:39:59.328Z,48.577881
2019-05-14T18:43:29.296Z,50.231934
2019-05-14T18:47:00.846Z,53.900146
2019-05-14T18:50:30.825Z,54.638672
2019-05-14T18:54:00.814Z,56.707764
2019-05-14T18:57:30.793Z,58.947754
2019-05-14T19:01:00.796Z,59.588623
2019-05-14T19:04:31.821Z,59.997559
2019-05-14T19:08:01.779Z,58.673096
2019-05-14T19:11:31.743Z,59.283447
2019-05-14T19:15:01.727Z,59.820557
2019-05-14T19:18:31.951Z,61.657715
2019-05-14T19:22:01.790Z,60.870361
2019-05-14T19:25:31.764Z,62.70752
2019-05-14T19:29:01.714Z,61.920166
2019-05-14T19:32:31.714Z,64.172363
2019-05-14T19:36:03.058Z,63.995361
2019-05-14T19:39:32.996Z,66.070557
2019-05-14T19:43:03.050Z,67.736816
2019-05-14T19:46:32.994Z,69.000244
2019-05-14T19:50:03.052Z,68.591309
2019-05-14T19:53:33.010Z,68.005371
2019-05-14T19:57:03.004Z,70.294189
2019-05-14T20:00:33.759Z,72.680664
2019-05-14T20:04:04.797Z,72.888184
2019-05-14T20:07:38.303Z,72.821045
2019-05-14T20:11:08.531Z,74.291992
2019-05-14T20:14:38.501Z,76.037598
2019-05-14T20:18:09.463Z,72.784424
2019-05-14T20:21:39.433Z,73.193359
2019-05-14T20:25:23.002Z,74.975586
2019-05-14T20:28:54.190Z,76.513672
2019-05-14T20:32:25.148Z,75.830078
2019-05-14T20:35:55.134Z,75.762939
2019-05-14T20:39:33.339Z,76.690674
2019-05-14T20:43:03.592Z,76.928711
2019-05-14T20:46:33.547Z,78.063965
2019-05-14T20:50:04.497Z,78.78418
2019-05-14T20:53:35.635Z,79.229736
2019-05-14T20:57:22.543Z,77.380371
2019-05-14T21:00:42.482Z,79.644775
2019-05-14T21:04:12.433Z,78.717041
2019-05-14T21:07:42.611Z,79.986572
2019-05-14T21:11:13.472Z,80.401611
2019-05-14T21:14:44.433Z,79.473877
2019-05-14T21:18:18.740Z,80.950928
2019-05-14T21:21:50.308Z,80.126953
2019-05-14T21:25:21.474Z,81.158447
2019-05-14T21:28:51.394Z,80.126953
2019-05-14T21:32:21.346Z,80.023193
2019-05-14T21:35:51.310Z,81.469727
2019-05-14T21:39:21.261Z,80.749512
2019-05-14T21:42:51.346Z,80.474854
2019-05-14T21:46:22.306Z,81.811523
2019-05-14T21:49:52.260Z,82.781982
2019-05-14T21:53:22.227Z,81.439209
2019-05-14T21:56:52.395Z,82.470703
